Fort Benning, Lawson Army Airfield (KLSF)

NameLawson Army Airfield
CityFort Benning
CountryUnited States
ICAOKLSF
IATALSF
Altitude71 m
CoordinatesGoogle Map
Live Air TrafficLiveATC.net
METARKLSF 211156Z AUTO 15003KT 10SM OVC005 23/23 A3006 RMK AO2 SLP183 70088 T02330233 10236 20227 53013
2018-08-21 11:56:00 Wind: Southeast (150°) 1.54 m/s - Visibility: 16093.4 m - Temperature: 23 °C - Dew point: 23 °C - Humidity: 100% - Pressure: 1017.95 hPa
Statistics

The table below shows the detailed information of all flights to/from Fort Benning, Lawson Army Airfield (KLSF).